Rosnes — LK4100 — position and weather

sailwx.info

Track history (hours):
 
Tides and Currents Weather Stations Pressure Air Temp Water Temp Dewpoint Dewpoint Depression Visibility Wind Speed Wind Dir Waves Ship Positions

Rosnes

Last reported at 2017-Oct-17 23:52 UTC. Time now 2017-Oct-18 00:13 UTC.
Position N 69°47' E 018°24'.

Length 19 m.

Type: Fishing. MMSI: 257045240.

Date/timePositionNaut miles runAvg speedWind from/ knotsBaromVisibWave heightAir tempDewpointWater temp
2017-Oct-17 23:52N 69°47' E 018°24'0 0.0
2017-Oct-17 14:28N 69°47' E 018°24'0 0.0
2017-Oct-17 13:58N 69°47' E 018°24'  
2017-Oct-09 09:58N 69°47' E 018°26'4 7.5
2017-Oct-09 09:30N 69°48' E 018°35'3 6.0
2017-Oct-09 09:00N 69°46' E 018°40'4 7.8
2017-Oct-09 08:30N 69°42' E 018°40'2 2.9
2017-Oct-09 07:58N 69°41' E 018°44'0 0.0
2017-Oct-09 07:28N 69°41' E 018°44'0 0.0
2017-Oct-09 06:58N 69°41' E 018°44'0 0.0
2017-Oct-09 06:28N 69°41' E 018°44'0 0.0
2017-Oct-09 05:58N 69°41' E 018°44'0 0.0
2017-Oct-09 05:28N 69°41' E 018°44'0 0.0
2017-Oct-09 04:58N 69°41' E 018°44'0 0.0
2017-Oct-09 04:28N 69°41' E 018°44'0 0.0
2017-Oct-09 03:58N 69°41' E 018°44'0 0.0
2017-Oct-09 03:28N 69°41' E 018°44'0 0.0
2017-Oct-09 02:58N 69°41' E 018°44'0 0.0
2017-Oct-09 02:28N 69°41' E 018°44'0 0.0
2017-Oct-09 01:58N 69°41' E 018°44'0 0.0
2017-Oct-09 01:25N 69°41' E 018°44'0 0.0
2017-Oct-09 00:58N 69°41' E 018°44'0 0.0
2017-Oct-09 00:28N 69°41' E 018°44'0 0.0
2017-Oct-08 23:58N 69°41' E 018°44'0 0.0
2017-Oct-08 23:28N 69°41' E 018°44'0 0.0
2017-Oct-08 22:58N 69°41' E 018°44'0 0.0
2017-Oct-08 22:28N 69°41' E 018°44'0 0.0
2017-Oct-08 21:58N 69°41' E 018°44'0 0.0
2017-Oct-08 21:28N 69°41' E 018°44'0 0.0
2017-Oct-08 20:58N 69°41' E 018°44'0 0.0
2017-Oct-08 20:28N 69°41' E 018°44'0 0.0
2017-Oct-08 19:58N 69°41' E 018°44'0 0.0
2017-Oct-08 19:25N 69°41' E 018°44'0 0.0
2017-Oct-08 18:58N 69°41' E 018°44'0 0.0
2017-Oct-08 18:28N 69°41' E 018°44'0 0.0
2017-Oct-08 17:58N 69°41' E 018°44'0 0.0
2017-Oct-08 17:25N 69°41' E 018°44'0 0.0
2017-Oct-08 16:58N 69°41' E 018°44'0 0.0
2017-Oct-08 16:28N 69°41' E 018°44'0 0.0
2017-Oct-08 15:58N 69°41' E 018°44'0 0.0
2017-Oct-08 15:28N 69°41' E 018°44'0 0.0
2017-Oct-08 14:58N 69°41' E 018°44'0 0.0
2017-Oct-08 14:25N 69°41' E 018°44'0 0.0
2017-Oct-08 13:58N 69°41' E 018°44'0 0.0
2017-Oct-08 13:28N 69°41' E 018°44'0 0.0
2017-Oct-08 12:58N 69°41' E 018°44'0 0.0
2017-Oct-08 12:28N 69°41' E 018°44'0 0.0
2017-Oct-08 11:58N 69°41' E 018°44'0 0.0
2017-Oct-08 11:28N 69°41' E 018°44'0 0.0
2017-Oct-08 10:58N 69°41' E 018°44'0 0.0
2017-Oct-08 10:28N 69°41' E 018°44'0 0.0
2017-Oct-08 09:58N 69°41' E 018°44'0 0.0
2017-Oct-08 09:28N 69°41' E 018°44'0 0.0
2017-Oct-08 08:58N 69°41' E 018°44'0 0.0
2017-Oct-08 08:28N 69°41' E 018°44'0 0.0
2017-Oct-08 07:58N 69°41' E 018°44'0 0.0
2017-Oct-08 07:28N 69°41' E 018°44'0 0.0
2017-Oct-08 06:58N 69°41' E 018°44'0 0.0
2017-Oct-08 06:28N 69°41' E 018°44'0 0.0
2017-Oct-08 05:58N 69°41' E 018°44'0 0.0
2017-Oct-08 05:28N 69°41' E 018°44'0 0.0
2017-Oct-08 04:58N 69°41' E 018°44'0 0.0
2017-Oct-08 04:28N 69°41' E 018°44'0 0.0
2017-Oct-08 03:58N 69°41' E 018°44'0 0.0
2017-Oct-08 03:28N 69°41' E 018°44'0 0.0
2017-Oct-08 02:58N 69°41' E 018°44'0 0.0
2017-Oct-08 02:28N 69°41' E 018°44'0 0.0
2017-Oct-08 01:58N 69°41' E 018°44'0 0.0
2017-Oct-08 01:28N 69°41' E 018°44'0 0.0
2017-Oct-08 00:58N 69°41' E 018°44'0 0.0
2017-Oct-08 00:28N 69°41' E 018°44'0 0.0
2017-Oct-07 23:58N 69°41' E 018°44'  
Track history (hours):
 
Tides and Currents Weather Stations Pressure Air Temp Water Temp Dewpoint Dewpoint Depression Visibility Wind Speed Wind Dir Waves Ship Positions

Rosnes

Last reported at 2017-Oct-17 23:52 UTC. Time now 2017-Oct-18 00:13 UTC.
Position N 69°47' E 018°24'.

Length 19 m.

Type: Fishing. MMSI: 257045240.

Date/timePositionNaut miles runAvg speedWind from/ knotsBaromVisibWave heightAir tempDewpointWater temp
2017-Oct-17 23:52N 69°47' E 018°24'0 0.0
2017-Oct-17 14:28N 69°47' E 018°24'0 0.0
2017-Oct-17 13:58N 69°47' E 018°24'  
2017-Oct-09 09:58N 69°47' E 018°26'4 7.5
2017-Oct-09 09:30N 69°48' E 018°35'3 6.0
2017-Oct-09 09:00N 69°46' E 018°40'4 7.8
2017-Oct-09 08:30N 69°42' E 018°40'2 2.9
2017-Oct-09 07:58N 69°41' E 018°44'0 0.0
2017-Oct-09 07:28N 69°41' E 018°44'0 0.0
2017-Oct-09 06:58N 69°41' E 018°44'0 0.0
2017-Oct-09 06:28N 69°41' E 018°44'0 0.0
2017-Oct-09 05:58N 69°41' E 018°44'0 0.0
2017-Oct-09 05:28N 69°41' E 018°44'0 0.0
2017-Oct-09 04:58N 69°41' E 018°44'0 0.0
2017-Oct-09 04:28N 69°41' E 018°44'0 0.0
2017-Oct-09 03:58N 69°41' E 018°44'0 0.0
2017-Oct-09 03:28N 69°41' E 018°44'0 0.0
2017-Oct-09 02:58N 69°41' E 018°44'0 0.0
2017-Oct-09 02:28N 69°41' E 018°44'0 0.0
2017-Oct-09 01:58N 69°41' E 018°44'0 0.0
2017-Oct-09 01:25N 69°41' E 018°44'0 0.0
2017-Oct-09 00:58N 69°41' E 018°44'0 0.0
2017-Oct-09 00:28N 69°41' E 018°44'0 0.0
2017-Oct-08 23:58N 69°41' E 018°44'0 0.0
2017-Oct-08 23:28N 69°41' E 018°44'0 0.0
2017-Oct-08 22:58N 69°41' E 018°44'0 0.0
2017-Oct-08 22:28N 69°41' E 018°44'0 0.0
2017-Oct-08 21:58N 69°41' E 018°44'0 0.0
2017-Oct-08 21:28N 69°41' E 018°44'0 0.0
2017-Oct-08 20:58N 69°41' E 018°44'0 0.0
2017-Oct-08 20:28N 69°41' E 018°44'0 0.0
2017-Oct-08 19:58N 69°41' E 018°44'0 0.0
2017-Oct-08 19:25N 69°41' E 018°44'0 0.0
2017-Oct-08 18:58N 69°41' E 018°44'0 0.0
2017-Oct-08 18:28N 69°41' E 018°44'0 0.0
2017-Oct-08 17:58N 69°41' E 018°44'0 0.0
2017-Oct-08 17:25N 69°41' E 018°44'0 0.0
2017-Oct-08 16:58N 69°41' E 018°44'0 0.0
2017-Oct-08 16:28N 69°41' E 018°44'0 0.0
2017-Oct-08 15:58N 69°41' E 018°44'0 0.0
2017-Oct-08 15:28N 69°41' E 018°44'0 0.0
2017-Oct-08 14:58N 69°41' E 018°44'0 0.0
2017-Oct-08 14:25N 69°41' E 018°44'0 0.0
2017-Oct-08 13:58N 69°41' E 018°44'0 0.0
2017-Oct-08 13:28N 69°41' E 018°44'0 0.0
2017-Oct-08 12:58N 69°41' E 018°44'0 0.0
2017-Oct-08 12:28N 69°41' E 018°44'0 0.0
2017-Oct-08 11:58N 69°41' E 018°44'0 0.0
2017-Oct-08 11:28N 69°41' E 018°44'0 0.0
2017-Oct-08 10:58N 69°41' E 018°44'0 0.0
2017-Oct-08 10:28N 69°41' E 018°44'0 0.0
2017-Oct-08 09:58N 69°41' E 018°44'0 0.0
2017-Oct-08 09:28N 69°41' E 018°44'0 0.0
2017-Oct-08 08:58N 69°41' E 018°44'0 0.0
2017-Oct-08 08:28N 69°41' E 018°44'0 0.0
2017-Oct-08 07:58N 69°41' E 018°44'0 0.0
2017-Oct-08 07:28N 69°41' E 018°44'0 0.0
2017-Oct-08 06:58N 69°41' E 018°44'0 0.0
2017-Oct-08 06:28N 69°41' E 018°44'0 0.0
2017-Oct-08 05:58N 69°41' E 018°44'0 0.0
2017-Oct-08 05:28N 69°41' E 018°44'0 0.0
2017-Oct-08 04:58N 69°41' E 018°44'0 0.0
2017-Oct-08 04:28N 69°41' E 018°44'0 0.0
2017-Oct-08 03:58N 69°41' E 018°44'0 0.0
2017-Oct-08 03:28N 69°41' E 018°44'0 0.0
2017-Oct-08 02:58N 69°41' E 018°44'0 0.0
2017-Oct-08 02:28N 69°41' E 018°44'0 0.0
2017-Oct-08 01:58N 69°41' E 018°44'0 0.0
2017-Oct-08 01:28N 69°41' E 018°44'0 0.0
2017-Oct-08 00:58N 69°41' E 018°44'0 0.0
2017-Oct-08 00:28N 69°41' E 018°44'0 0.0
2017-Oct-07 23:58N 69°41' E 018°44'  

Dump ship's entire track history